sensor_id;sensor_type;location;lat;lon;timestamp;P1;durP1;ratioP1;P2;durP2;ratioP2
10088;SDS011;51898;49.864;8.550;2023-03-31T00:02:18;3.90;;;2.23;;
10088;SDS011;51898;49.864;8.550;2023-03-31T00:05:23;7.17;;;2.33;;
10088;SDS011;51898;49.864;8.550;2023-03-31T00:08:26;3.60;;;2.20;;
10088;SDS011;51898;49.864;8.550;2023-03-31T00:11:30;5.63;;;1.87;;
10088;SDS011;51898;49.864;8.550;2023-03-31T00:14:32;7.00;;;2.80;;
10088;SDS011;51898;49.864;8.550;2023-03-31T00:17:34;5.90;;;2.03;;
10088;SDS011;51898;49.864;8.550;2023-03-31T00:20:35;4.73;;;1.90;;
10088;SDS011;51898;49.864;8.550;2023-03-31T00:23:38;9.50;;;3.00;;
10088;SDS011;51898;49.864;8.550;2023-03-31T00:26:40;5.20;;;2.03;;
10088;SDS011;51898;49.864;8.550;2023-03-31T00:29:42;6.90;;;3.10;;
10088;SDS011;51898;49.864;8.550;2023-03-31T00:32:45;8.20;;;2.27;;
10088;SDS011;51898;49.864;8.550;2023-03-31T00:35:49;11.17;;;2.67;;
10088;SDS011;51898;49.864;8.550;2023-03-31T00:38:52;3.47;;;2.10;;
10088;SDS011;51898;49.864;8.550;2023-03-31T00:42:02;6.70;;;2.40;;
10088;SDS011;51898;49.864;8.550;2023-03-31T00:48:15;7.27;;;2.70;;
10088;SDS011;51898;49.864;8.550;2023-03-31T00:51:19;7.13;;;2.40;;
10088;SDS011;51898;49.864;8.550;2023-03-31T00:54:24;2.60;;;2.00;;
10088;SDS011;51898;49.864;8.550;2023-03-31T00:57:27;9.33;;;2.23;;
10088;SDS011;51898;49.864;8.550;2023-03-31T01:00:32;5.93;;;1.83;;
10088;SDS011;51898;49.864;8.550;2023-03-31T01:03:34;4.50;;;1.80;;
10088;SDS011;51898;49.864;8.550;2023-03-31T01:06:37;6.80;;;2.07;;
10088;SDS011;51898;49.864;8.550;2023-03-31T01:09:52;7.27;;;2.63;;
10088;SDS011;51898;49.864;8.550;2023-03-31T01:12:57;3.37;;;1.80;;
10088;SDS011;51898;49.864;8.550;2023-03-31T01:15:59;8.57;;;2.53;;
10088;SDS011;51898;49.864;8.550;2023-03-31T01:19:01;5.40;;;2.73;;
10088;SDS011;51898;49.864;8.550;2023-03-31T01:25:22;3.90;;;2.23;;
10088;SDS011;51898;49.864;8.550;2023-03-31T01:28:53;9.43;;;2.83;;
10088;SDS011;51898;49.864;8.550;2023-03-31T01:32:13;9.07;;;2.20;;
10088;SDS011;51898;49.864;8.550;2023-03-31T01:35:31;6.80;;;2.10;;
10088;SDS011;51898;49.864;8.550;2023-03-31T01:42:33;7.90;;;2.43;;
10088;SDS011;51898;49.864;8.550;2023-03-31T01:45:54;7.07;;;2.60;;
10088;SDS011;51898;49.864;8.550;2023-03-31T01:49:06;6.47;;;3.00;;
10088;SDS011;51898;49.864;8.550;2023-03-31T01:55:33;4.17;;;2.43;;
10088;SDS011;51898;49.864;8.550;2023-03-31T02:02:20;5.40;;;2.07;;
10088;SDS011;51898;49.864;8.550;2023-03-31T02:05:31;5.53;;;2.70;;
10088;SDS011;51898;49.864;8.550;2023-03-31T02:08:37;10.57;;;2.63;;
10088;SDS011;51898;49.864;8.550;2023-03-31T02:11:43;6.60;;;2.50;;
10088;SDS011;51898;49.864;8.550;2023-03-31T02:14:47;5.43;;;2.00;;
10088;SDS011;51898;49.864;8.550;2023-03-31T02:17:54;6.37;;;2.37;;
10088;SDS011;51898;49.864;8.550;2023-03-31T02:20:59;5.33;;;2.80;;
10088;SDS011;51898;49.864;8.550;2023-03-31T02:24:03;10.70;;;2.77;;
10088;SDS011;51898;49.864;8.550;2023-03-31T02:30:24;4.43;;;2.00;;
10088;SDS011;51898;49.864;8.550;2023-03-31T02:33:30;4.90;;;2.20;;
10088;SDS011;51898;49.864;8.550;2023-03-31T02:36:32;4.83;;;1.90;;
10088;SDS011;51898;49.864;8.550;2023-03-31T02:39:35;5.50;;;2.50;;
10088;SDS011;51898;49.864;8.550;2023-03-31T02:42:41;7.10;;;2.40;;
10088;SDS011;51898;49.864;8.550;2023-03-31T02:45:47;7.13;;;2.00;;
10088;SDS011;51898;49.864;8.550;2023-03-31T02:48:51;12.30;;;3.30;;
10088;SDS011;51898;49.864;8.550;2023-03-31T02:59:35;4.13;;;2.07;;
10088;SDS011;51898;49.864;8.550;2023-03-31T03:06:17;5.70;;;2.70;;
10088;SDS011;51898;49.864;8.550;2023-03-31T03:09:44;8.80;;;2.33;;
10088;SDS011;51898;49.864;8.550;2023-03-31T03:13:00;7.63;;;2.40;;
10088;SDS011;51898;49.864;8.550;2023-03-31T03:16:30;10.13;;;2.40;;
10088;SDS011;51898;49.864;8.550;2023-03-31T03:19:37;10.23;;;2.27;;
10088;SDS011;51898;49.864;8.550;2023-03-31T03:22:41;6.90;;;2.17;;
10088;SDS011;51898;49.864;8.550;2023-03-31T03:25:43;7.30;;;2.00;;
10088;SDS011;51898;49.864;8.550;2023-03-31T03:28:46;6.20;;;2.30;;
10088;SDS011;51898;49.864;8.550;2023-03-31T03:31:49;7.93;;;3.07;;
10088;SDS011;51898;49.864;8.550;2023-03-31T03:34:50;6.70;;;2.40;;
10088;SDS011;51898;49.864;8.550;2023-03-31T03:37:52;8.63;;;2.80;;
10088;SDS011;51898;49.864;8.550;2023-03-31T03:40:53;9.00;;;2.53;;
10088;SDS011;51898;49.864;8.550;2023-03-31T03:43:55;7.20;;;2.53;;
10088;SDS011;51898;49.864;8.550;2023-03-31T03:46:57;6.53;;;2.80;;
10088;SDS011;51898;49.864;8.550;2023-03-31T03:49:58;5.57;;;2.10;;
10088;SDS011;51898;49.864;8.550;2023-03-31T03:53:00;5.13;;;2.50;;
10088;SDS011;51898;49.864;8.550;2023-03-31T03:56:02;3.93;;;2.33;;
10088;SDS011;51898;49.864;8.550;2023-03-31T03:59:04;4.47;;;2.83;;
10088;SDS011;51898;49.864;8.550;2023-03-31T04:02:06;9.17;;;2.63;;
10088;SDS011;51898;49.864;8.550;2023-03-31T04:05:08;5.30;;;2.10;;
10088;SDS011;51898;49.864;8.550;2023-03-31T04:08:09;9.77;;;2.83;;
10088;SDS011;51898;49.864;8.550;2023-03-31T04:11:12;6.63;;;2.23;;
10088;SDS011;51898;49.864;8.550;2023-03-31T04:14:19;5.87;;;1.63;;
10088;SDS011;51898;49.864;8.550;2023-03-31T04:17:21;7.83;;;2.03;;
10088;SDS011;51898;49.864;8.550;2023-03-31T04:20:33;6.27;;;2.37;;
10088;SDS011;51898;49.864;8.550;2023-03-31T04:23:38;8.93;;;1.83;;
10088;SDS011;51898;49.864;8.550;2023-03-31T04:26:46;4.63;;;2.00;;
10088;SDS011;51898;49.864;8.550;2023-03-31T04:29:50;4.63;;;1.80;;
10088;SDS011;51898;49.864;8.550;2023-03-31T04:32:58;4.90;;;1.90;;
10088;SDS011;51898;49.864;8.550;2023-03-31T04:36:03;5.23;;;2.40;;
10088;SDS011;51898;49.864;8.550;2023-03-31T04:39:20;4.27;;;2.03;;
10088;SDS011;51898;49.864;8.550;2023-03-31T04:42:30;5.93;;;2.43;;
10088;SDS011;51898;49.864;8.550;2023-03-31T04:45:32;11.30;;;2.63;;
10088;SDS011;51898;49.864;8.550;2023-03-31T04:48:34;7.70;;;2.43;;
10088;SDS011;51898;49.864;8.550;2023-03-31T04:51:36;6.40;;;2.53;;
10088;SDS011;51898;49.864;8.550;2023-03-31T04:54:37;7.50;;;2.23;;
10088;SDS011;51898;49.864;8.550;2023-03-31T04:57:39;14.17;;;2.13;;
10088;SDS011;51898;49.864;8.550;2023-03-31T05:00:42;8.80;;;2.70;;
10088;SDS011;51898;49.864;8.550;2023-03-31T05:03:44;5.20;;;2.30;;
10088;SDS011;51898;49.864;8.550;2023-03-31T05:06:48;4.60;;;2.33;;
10088;SDS011;51898;49.864;8.550;2023-03-31T05:09:50;6.30;;;2.27;;
10088;SDS011;51898;49.864;8.550;2023-03-31T05:12:52;4.83;;;2.27;;
10088;SDS011;51898;49.864;8.550;2023-03-31T05:15:53;4.87;;;2.13;;
10088;SDS011;51898;49.864;8.550;2023-03-31T05:18:55;6.70;;;2.87;;
10088;SDS011;51898;49.864;8.550;2023-03-31T05:21:57;4.60;;;2.57;;
10088;SDS011;51898;49.864;8.550;2023-03-31T05:24:58;3.97;;;2.27;;
10088;SDS011;51898;49.864;8.550;2023-03-31T05:28:00;6.60;;;2.43;;
10088;SDS011;51898;49.864;8.550;2023-03-31T05:31:03;8.37;;;2.40;;
10088;SDS011;51898;49.864;8.550;2023-03-31T05:34:05;7.00;;;2.77;;
10088;SDS011;51898;49.864;8.550;2023-03-31T05:37:07;7.00;;;2.40;;
10088;SDS011;51898;49.864;8.550;2023-03-31T05:40:09;8.07;;;2.83;;
10088;SDS011;51898;49.864;8.550;2023-03-31T05:43:11;5.57;;;2.20;;
10088;SDS011;51898;49.864;8.550;2023-03-31T05:46:12;5.97;;;2.43;;
10088;SDS011;51898;49.864;8.550;2023-03-31T05:49:14;8.17;;;2.67;;
10088;SDS011;51898;49.864;8.550;2023-03-31T05:52:17;7.60;;;2.27;;
10088;SDS011;51898;49.864;8.550;2023-03-31T05:55:18;8.93;;;2.10;;
10088;SDS011;51898;49.864;8.550;2023-03-31T05:58:20;10.17;;;3.13;;
10088;SDS011;51898;49.864;8.550;2023-03-31T06:01:22;9.90;;;2.93;;
10088;SDS011;51898;49.864;8.550;2023-03-31T06:04:25;7.07;;;2.80;;
10088;SDS011;51898;49.864;8.550;2023-03-31T06:07:26;5.63;;;2.80;;
10088;SDS011;51898;49.864;8.550;2023-03-31T06:10:28;7.73;;;3.03;;
10088;SDS011;51898;49.864;8.550;2023-03-31T06:13:30;10.50;;;3.40;;
10088;SDS011;51898;49.864;8.550;2023-03-31T06:16:32;7.40;;;3.10;;
10088;SDS011;51898;49.864;8.550;2023-03-31T06:19:33;11.50;;;3.10;;
10088;SDS011;51898;49.864;8.550;2023-03-31T06:22:36;9.20;;;3.60;;
10088;SDS011;51898;49.864;8.550;2023-03-31T06:25:37;6.20;;;3.47;;
10088;SDS011;51898;49.864;8.550;2023-03-31T06:28:51;6.33;;;3.40;;
10088;SDS011;51898;49.864;8.550;2023-03-31T06:31:53;10.80;;;4.63;;
10088;SDS011;51898;49.864;8.550;2023-03-31T06:34:54;8.23;;;4.17;;
10088;SDS011;51898;49.864;8.550;2023-03-31T06:37:56;8.07;;;4.27;;
10088;SDS011;51898;49.864;8.550;2023-03-31T06:40:58;8.53;;;3.80;;
10088;SDS011;51898;49.864;8.550;2023-03-31T06:44:00;7.57;;;3.77;;
10088;SDS011;51898;49.864;8.550;2023-03-31T06:47:01;6.50;;;3.60;;
10088;SDS011;51898;49.864;8.550;2023-03-31T06:50:03;10.50;;;4.30;;
10088;SDS011;51898;49.864;8.550;2023-03-31T06:53:07;10.70;;;4.40;;
10088;SDS011;51898;49.864;8.550;2023-03-31T06:56:09;7.10;;;4.63;;
10088;SDS011;51898;49.864;8.550;2023-03-31T06:59:10;7.20;;;4.03;;
10088;SDS011;51898;49.864;8.550;2023-03-31T07:02:12;10.90;;;5.00;;
10088;SDS011;51898;49.864;8.550;2023-03-31T07:05:15;9.70;;;4.33;;
10088;SDS011;51898;49.864;8.550;2023-03-31T07:08:17;13.80;;;4.53;;
10088;SDS011;51898;49.864;8.550;2023-03-31T07:11:19;9.53;;;4.70;;
10088;SDS011;51898;49.864;8.550;2023-03-31T07:14:21;8.73;;;4.70;;
10088;SDS011;51898;49.864;8.550;2023-03-31T07:17:23;8.57;;;4.83;;
10088;SDS011;51898;49.864;8.550;2023-03-31T07:20:25;7.67;;;4.83;;
10088;SDS011;51898;49.864;8.550;2023-03-31T07:23:27;8.90;;;5.27;;
10088;SDS011;51898;49.864;8.550;2023-03-31T07:26:29;7.90;;;4.13;;
10088;SDS011;51898;49.864;8.550;2023-03-31T07:29:30;8.43;;;5.73;;
10088;SDS011;51898;49.864;8.550;2023-03-31T07:32:32;11.63;;;5.67;;
10088;SDS011;51898;49.864;8.550;2023-03-31T07:35:36;8.57;;;5.67;;
10088;SDS011;51898;49.864;8.550;2023-03-31T07:38:39;14.13;;;6.10;;
10088;SDS011;51898;49.864;8.550;2023-03-31T07:41:42;10.00;;;5.20;;
10088;SDS011;51898;49.864;8.550;2023-03-31T07:44:44;10.33;;;5.60;;
10088;SDS011;51898;49.864;8.550;2023-03-31T07:47:46;9.53;;;5.70;;
10088;SDS011;51898;49.864;8.550;2023-03-31T07:50:48;9.13;;;5.90;;
10088;SDS011;51898;49.864;8.550;2023-03-31T07:53:51;10.23;;;5.57;;
10088;SDS011;51898;49.864;8.550;2023-03-31T07:56:53;9.30;;;5.33;;
10088;SDS011;51898;49.864;8.550;2023-03-31T07:59:55;7.70;;;5.20;;
10088;SDS011;51898;49.864;8.550;2023-03-31T08:02:57;7.40;;;4.67;;
10088;SDS011;51898;49.864;8.550;2023-03-31T08:05:58;8.43;;;4.27;;
10088;SDS011;51898;49.864;8.550;2023-03-31T08:09:00;5.73;;;3.70;;
10088;SDS011;51898;49.864;8.550;2023-03-31T08:12:03;7.80;;;3.63;;
10088;SDS011;51898;49.864;8.550;2023-03-31T08:15:05;5.73;;;3.60;;
10088;SDS011;51898;49.864;8.550;2023-03-31T08:18:08;5.23;;;3.00;;
10088;SDS011;51898;49.864;8.550;2023-03-31T08:21:09;4.63;;;3.07;;
10088;SDS011;51898;49.864;8.550;2023-03-31T08:24:11;4.47;;;2.50;;
10088;SDS011;51898;49.864;8.550;2023-03-31T08:27:13;3.23;;;2.93;;
10088;SDS011;51898;49.864;8.550;2023-03-31T08:30:15;5.17;;;3.00;;
10088;SDS011;51898;49.864;8.550;2023-03-31T08:33:18;5.47;;;3.00;;
10088;SDS011;51898;49.864;8.550;2023-03-31T08:36:20;6.43;;;3.10;;
10088;SDS011;51898;49.864;8.550;2023-03-31T08:39:22;6.73;;;3.20;;
10088;SDS011;51898;49.864;8.550;2023-03-31T08:42:40;5.00;;;3.13;;
10088;SDS011;51898;49.864;8.550;2023-03-31T08:45:47;4.80;;;3.03;;
10088;SDS011;51898;49.864;8.550;2023-03-31T08:48:51;3.70;;;2.90;;
10088;SDS011;51898;49.864;8.550;2023-03-31T08:51:59;5.13;;;2.70;;
10088;SDS011;51898;49.864;8.550;2023-03-31T08:55:06;5.63;;;3.30;;
10088;SDS011;51898;49.864;8.550;2023-03-31T08:58:28;4.90;;;3.00;;
10088;SDS011;51898;49.864;8.550;2023-03-31T09:01:41;8.70;;;3.23;;
10088;SDS011;51898;49.864;8.550;2023-03-31T09:05:14;4.73;;;2.80;;
10088;SDS011;51898;49.864;8.550;2023-03-31T09:11:34;7.50;;;4.00;;
10088;SDS011;51898;49.864;8.550;2023-03-31T09:14:41;6.30;;;4.00;;
10088;SDS011;51898;49.864;8.550;2023-03-31T09:17:49;8.60;;;4.40;;
10088;SDS011;51898;49.864;8.550;2023-03-31T09:20:52;5.03;;;4.07;;
10088;SDS011;51898;49.864;8.550;2023-03-31T09:24:07;6.37;;;3.97;;
10088;SDS011;51898;49.864;8.550;2023-03-31T09:27:11;4.23;;;3.43;;
10088;SDS011;51898;49.864;8.550;2023-03-31T09:30:19;5.87;;;3.60;;
10088;SDS011;51898;49.864;8.550;2023-03-31T09:33:26;5.83;;;3.27;;
10088;SDS011;51898;49.864;8.550;2023-03-31T09:36:32;7.83;;;4.27;;
10088;SDS011;51898;49.864;8.550;2023-03-31T09:39:34;8.23;;;4.30;;
10088;SDS011;51898;49.864;8.550;2023-03-31T09:42:36;7.43;;;4.27;;
10088;SDS011;51898;49.864;8.550;2023-03-31T09:45:38;10.93;;;4.00;;
10088;SDS011;51898;49.864;8.550;2023-03-31T09:48:40;6.90;;;4.03;;
10088;SDS011;51898;49.864;8.550;2023-03-31T09:52:06;8.00;;;4.80;;
10088;SDS011;51898;49.864;8.550;2023-03-31T09:55:17;6.57;;;3.63;;
10088;SDS011;51898;49.864;8.550;2023-03-31T09:58:40;8.27;;;3.27;;
10088;SDS011;51898;49.864;8.550;2023-03-31T10:01:47;3.33;;;2.23;;
10088;SDS011;51898;49.864;8.550;2023-03-31T10:04:50;5.53;;;2.23;;
10088;SDS011;51898;49.864;8.550;2023-03-31T10:07:54;3.93;;;1.80;;
10088;SDS011;51898;49.864;8.550;2023-03-31T10:11:19;5.23;;;1.93;;
10088;SDS011;51898;49.864;8.550;2023-03-31T10:14:24;4.03;;;1.57;;
10088;SDS011;51898;49.864;8.550;2023-03-31T10:17:33;3.67;;;1.60;;
10088;SDS011;51898;49.864;8.550;2023-03-31T10:20:56;2.23;;;1.20;;
10088;SDS011;51898;49.864;8.550;2023-03-31T10:23:59;4.50;;;1.30;;
10088;SDS011;51898;49.864;8.550;2023-03-31T10:27:02;2.57;;;1.03;;
10088;SDS011;51898;49.864;8.550;2023-03-31T10:30:08;3.13;;;1.40;;
10088;SDS011;51898;49.864;8.550;2023-03-31T10:33:13;3.40;;;1.57;;
10088;SDS011;51898;49.864;8.550;2023-03-31T10:36:27;5.03;;;1.50;;
10088;SDS011;51898;49.864;8.550;2023-03-31T10:39:30;4.73;;;1.77;;
10088;SDS011;51898;49.864;8.550;2023-03-31T10:42:33;5.47;;;1.87;;
10088;SDS011;51898;49.864;8.550;2023-03-31T10:45:36;4.90;;;1.50;;
10088;SDS011;51898;49.864;8.550;2023-03-31T10:48:41;3.93;;;1.30;;
10088;SDS011;51898;49.864;8.550;2023-03-31T10:51:48;5.33;;;1.87;;
10088;SDS011;51898;49.864;8.550;2023-03-31T10:55:01;5.33;;;1.67;;
10088;SDS011;51898;49.864;8.550;2023-03-31T10:58:10;3.67;;;1.20;;
10088;SDS011;51898;49.864;8.550;2023-03-31T11:01:34;5.23;;;2.07;;
10088;SDS011;51898;49.864;8.550;2023-03-31T11:05:03;5.63;;;2.00;;
10088;SDS011;51898;49.864;8.550;2023-03-31T11:08:13;4.17;;;1.60;;
10088;SDS011;51898;49.864;8.550;2023-03-31T11:15:08;5.70;;;2.47;;
10088;SDS011;51898;49.864;8.550;2023-03-31T11:22:07;5.80;;;2.47;;
10088;SDS011;51898;49.864;8.550;2023-03-31T11:42:14;5.53;;;2.50;;
10088;SDS011;51898;49.864;8.550;2023-03-31T11:45:22;11.10;;;3.47;;
10088;SDS011;51898;49.864;8.550;2023-03-31T11:48:32;9.70;;;2.70;;
10088;SDS011;51898;49.864;8.550;2023-03-31T11:55:04;6.47;;;2.30;;
10088;SDS011;51898;49.864;8.550;2023-03-31T11:58:22;11.70;;;2.90;;
10088;SDS011;51898;49.864;8.550;2023-03-31T12:01:49;10.97;;;2.90;;
10088;SDS011;51898;49.864;8.550;2023-03-31T12:05:12;6.70;;;3.10;;
10088;SDS011;51898;49.864;8.550;2023-03-31T12:08:24;8.50;;;2.53;;
10088;SDS011;51898;49.864;8.550;2023-03-31T12:12:07;7.57;;;2.43;;
10088;SDS011;51898;49.864;8.550;2023-03-31T12:15:38;9.50;;;3.30;;
10088;SDS011;51898;49.864;8.550;2023-03-31T12:18:50;9.03;;;2.77;;
10088;SDS011;51898;49.864;8.550;2023-03-31T12:22:01;6.93;;;2.67;;
10088;SDS011;51898;49.864;8.550;2023-03-31T12:25:15;9.27;;;2.60;;
10088;SDS011;51898;49.864;8.550;2023-03-31T12:28:26;12.90;;;2.23;;
10088;SDS011;51898;49.864;8.550;2023-03-31T12:31:29;11.53;;;2.53;;
10088;SDS011;51898;49.864;8.550;2023-03-31T12:34:33;5.13;;;2.07;;
10088;SDS011;51898;49.864;8.550;2023-03-31T12:37:46;7.40;;;1.90;;
10088;SDS011;51898;49.864;8.550;2023-03-31T12:41:29;6.03;;;2.30;;
10088;SDS011;51898;49.864;8.550;2023-03-31T12:44:46;4.63;;;2.10;;
10088;SDS011;51898;49.864;8.550;2023-03-31T12:51:38;4.00;;;1.70;;
10088;SDS011;51898;49.864;8.550;2023-03-31T13:01:24;6.17;;;2.10;;
10088;SDS011;51898;49.864;8.550;2023-03-31T13:04:26;9.53;;;2.80;;
10088;SDS011;51898;49.864;8.550;2023-03-31T13:10:29;5.60;;;2.27;;
10088;SDS011;51898;49.864;8.550;2023-03-31T13:13:32;8.47;;;3.87;;
10088;SDS011;51898;49.864;8.550;2023-03-31T13:16:40;6.40;;;1.57;;
10088;SDS011;51898;49.864;8.550;2023-03-31T13:19:43;5.17;;;2.03;;
10088;SDS011;51898;49.864;8.550;2023-03-31T13:22:47;4.63;;;1.40;;
10088;SDS011;51898;49.864;8.550;2023-03-31T13:25:49;3.37;;;1.20;;
10088;SDS011;51898;49.864;8.550;2023-03-31T13:29:09;2.90;;;1.33;;
10088;SDS011;51898;49.864;8.550;2023-03-31T13:32:18;1.73;;;0.90;;
10088;SDS011;51898;49.864;8.550;2023-03-31T13:35:26;4.27;;;0.90;;
10088;SDS011;51898;49.864;8.550;2023-03-31T13:52:09;1.70;;;0.90;;
10088;SDS011;51898;49.864;8.550;2023-03-31T13:55:27;1.00;;;0.67;;
10088;SDS011;51898;49.864;8.550;2023-03-31T13:58:53;1.90;;;0.70;;
10088;SDS011;51898;49.864;8.550;2023-03-31T14:05:18;1.30;;;0.80;;
10088;SDS011;51898;49.864;8.550;2023-03-31T14:11:38;1.90;;;1.10;;
10088;SDS011;51898;49.864;8.550;2023-03-31T14:14:40;1.37;;;0.70;;
10088;SDS011;51898;49.864;8.550;2023-03-31T14:17:42;1.40;;;0.90;;
10088;SDS011;51898;49.864;8.550;2023-03-31T14:20:47;1.80;;;0.90;;
10088;SDS011;51898;49.864;8.550;2023-03-31T14:27:41;3.23;;;1.30;;
10088;SDS011;51898;49.864;8.550;2023-03-31T14:31:10;2.87;;;1.20;;
10088;SDS011;51898;49.864;8.550;2023-03-31T14:34:25;1.67;;;1.10;;
10088;SDS011;51898;49.864;8.550;2023-03-31T14:37:46;2.73;;;1.37;;
10088;SDS011;51898;49.864;8.550;2023-03-31T14:40:50;2.20;;;0.97;;
10088;SDS011;51898;49.864;8.550;2023-03-31T14:43:56;5.37;;;1.53;;
10088;SDS011;51898;49.864;8.550;2023-03-31T14:47:01;3.00;;;1.40;;
10088;SDS011;51898;49.864;8.550;2023-03-31T14:53:21;2.50;;;1.27;;
10088;SDS011;51898;49.864;8.550;2023-03-31T14:56:29;3.53;;;2.27;;
10088;SDS011;51898;49.864;8.550;2023-03-31T14:59:39;3.20;;;1.63;;
10088;SDS011;51898;49.864;8.550;2023-03-31T15:02:41;7.43;;;1.70;;
10088;SDS011;51898;49.864;8.550;2023-03-31T15:05:44;9.33;;;3.20;;
10088;SDS011;51898;49.864;8.550;2023-03-31T15:08:51;4.57;;;0.93;;
10088;SDS011;51898;49.864;8.550;2023-03-31T15:11:59;2.93;;;1.40;;
10088;SDS011;51898;49.864;8.550;2023-03-31T15:15:04;2.87;;;1.50;;
10088;SDS011;51898;49.864;8.550;2023-03-31T15:18:09;8.67;;;3.37;;
10088;SDS011;51898;49.864;8.550;2023-03-31T15:21:20;2.80;;;1.33;;
10088;SDS011;51898;49.864;8.550;2023-03-31T15:24:25;3.07;;;1.20;;
10088;SDS011;51898;49.864;8.550;2023-03-31T15:27:33;3.67;;;1.20;;
10088;SDS011;51898;49.864;8.550;2023-03-31T15:30:57;2.27;;;1.40;;
10088;SDS011;51898;49.864;8.550;2023-03-31T15:34:11;5.50;;;2.07;;
10088;SDS011;51898;49.864;8.550;2023-03-31T15:37:18;3.20;;;1.20;;
10088;SDS011;51898;49.864;8.550;2023-03-31T15:40:28;4.37;;;1.37;;
10088;SDS011;51898;49.864;8.550;2023-03-31T15:49:51;3.17;;;1.20;;
10088;SDS011;51898;49.864;8.550;2023-03-31T15:52:58;6.93;;;1.93;;
10088;SDS011;51898;49.864;8.550;2023-03-31T15:56:01;3.37;;;0.80;;
10088;SDS011;51898;49.864;8.550;2023-03-31T15:59:04;3.30;;;1.00;;
10088;SDS011;51898;49.864;8.550;2023-03-31T16:02:22;2.10;;;1.20;;
10088;SDS011;51898;49.864;8.550;2023-03-31T16:05:32;6.23;;;1.07;;
10088;SDS011;51898;49.864;8.550;2023-03-31T16:09:00;4.13;;;1.00;;
10088;SDS011;51898;49.864;8.550;2023-03-31T16:12:10;3.80;;;1.40;;
10088;SDS011;51898;49.864;8.550;2023-03-31T16:15:16;5.03;;;1.10;;
10088;SDS011;51898;49.864;8.550;2023-03-31T16:18:29;3.00;;;1.33;;
10088;SDS011;51898;49.864;8.550;2023-03-31T16:21:40;5.43;;;1.70;;
10088;SDS011;51898;49.864;8.550;2023-03-31T16:24:44;6.67;;;1.80;;
10088;SDS011;51898;49.864;8.550;2023-03-31T16:27:47;3.17;;;1.63;;
10088;SDS011;51898;49.864;8.550;2023-03-31T16:30:53;6.37;;;2.00;;
10088;SDS011;51898;49.864;8.550;2023-03-31T16:33:56;5.03;;;1.73;;
10088;SDS011;51898;49.864;8.550;2023-03-31T16:36:58;4.57;;;1.70;;
10088;SDS011;51898;49.864;8.550;2023-03-31T16:39:59;9.47;;;2.00;;
10088;SDS011;51898;49.864;8.550;2023-03-31T16:43:09;6.97;;;2.67;;
10088;SDS011;51898;49.864;8.550;2023-03-31T16:46:20;7.63;;;2.23;;
10088;SDS011;51898;49.864;8.550;2023-03-31T16:49:23;7.67;;;3.80;;
10088;SDS011;51898;49.864;8.550;2023-03-31T16:52:25;5.37;;;1.50;;
10088;SDS011;51898;49.864;8.550;2023-03-31T16:55:27;4.07;;;1.73;;
10088;SDS011;51898;49.864;8.550;2023-03-31T16:58:31;2.50;;;1.80;;
10088;SDS011;51898;49.864;8.550;2023-03-31T17:01:33;8.93;;;2.10;;
10088;SDS011;51898;49.864;8.550;2023-03-31T17:04:35;8.63;;;1.80;;
10088;SDS011;51898;49.864;8.550;2023-03-31T17:07:37;6.00;;;1.80;;
10088;SDS011;51898;49.864;8.550;2023-03-31T17:10:39;3.70;;;1.40;;
10088;SDS011;51898;49.864;8.550;2023-03-31T17:13:42;4.60;;;1.33;;
10088;SDS011;51898;49.864;8.550;2023-03-31T17:16:44;9.73;;;3.10;;
10088;SDS011;51898;49.864;8.550;2023-03-31T17:20:06;3.53;;;1.23;;
10088;SDS011;51898;49.864;8.550;2023-03-31T17:23:09;5.03;;;1.77;;
10088;SDS011;51898;49.864;8.550;2023-03-31T17:26:11;4.53;;;1.67;;
10088;SDS011;51898;49.864;8.550;2023-03-31T17:29:13;4.93;;;1.50;;
10088;SDS011;51898;49.864;8.550;2023-03-31T17:32:16;8.00;;;1.60;;
10088;SDS011;51898;49.864;8.550;2023-03-31T17:35:19;5.83;;;3.20;;
10088;SDS011;51898;49.864;8.550;2023-03-31T17:38:21;5.17;;;1.47;;
10088;SDS011;51898;49.864;8.550;2023-03-31T17:41:23;4.90;;;1.63;;
10088;SDS011;51898;49.864;8.550;2023-03-31T17:44:25;1.93;;;1.53;;
10088;SDS011;51898;49.864;8.550;2023-03-31T17:47:29;8.87;;;2.00;;
10088;SDS011;51898;49.864;8.550;2023-03-31T17:50:31;6.83;;;2.43;;
10088;SDS011;51898;49.864;8.550;2023-03-31T17:53:33;5.50;;;1.63;;
10088;SDS011;51898;49.864;8.550;2023-03-31T17:56:35;6.07;;;1.53;;
10088;SDS011;51898;49.864;8.550;2023-03-31T17:59:37;7.83;;;1.60;;
10088;SDS011;51898;49.864;8.550;2023-03-31T18:02:40;6.37;;;1.30;;
10088;SDS011;51898;49.864;8.550;2023-03-31T18:05:42;9.00;;;1.67;;
10088;SDS011;51898;49.864;8.550;2023-03-31T18:08:45;10.87;;;3.40;;
10088;SDS011;51898;49.864;8.550;2023-03-31T18:11:47;15.60;;;6.00;;
10088;SDS011;51898;49.864;8.550;2023-03-31T18:14:49;8.03;;;3.73;;
10088;SDS011;51898;49.864;8.550;2023-03-31T18:17:50;4.60;;;1.67;;
10088;SDS011;51898;49.864;8.550;2023-03-31T18:20:53;5.33;;;1.40;;
10088;SDS011;51898;49.864;8.550;2023-03-31T18:23:55;4.50;;;1.40;;
10088;SDS011;51898;49.864;8.550;2023-03-31T18:26:57;2.40;;;1.07;;
10088;SDS011;51898;49.864;8.550;2023-03-31T18:29:59;2.30;;;1.07;;
10088;SDS011;51898;49.864;8.550;2023-03-31T18:33:00;2.90;;;1.00;;
10088;SDS011;51898;49.864;8.550;2023-03-31T18:36:03;1.60;;;1.20;;
10088;SDS011;51898;49.864;8.550;2023-03-31T18:39:05;3.00;;;1.40;;
10088;SDS011;51898;49.864;8.550;2023-03-31T18:42:07;2.70;;;1.10;;
10088;SDS011;51898;49.864;8.550;2023-03-31T18:45:09;2.37;;;1.17;;
10088;SDS011;51898;49.864;8.550;2023-03-31T18:48:11;2.07;;;1.10;;
10088;SDS011;51898;49.864;8.550;2023-03-31T18:51:13;2.33;;;1.40;;
10088;SDS011;51898;49.864;8.550;2023-03-31T18:54:15;5.37;;;1.80;;
10088;SDS011;51898;49.864;8.550;2023-03-31T18:57:17;2.73;;;1.17;;
10088;SDS011;51898;49.864;8.550;2023-03-31T19:00:19;3.70;;;1.63;;
10088;SDS011;51898;49.864;8.550;2023-03-31T19:03:21;4.13;;;1.87;;
10088;SDS011;51898;49.864;8.550;2023-03-31T19:06:23;3.63;;;1.37;;
10088;SDS011;51898;49.864;8.550;2023-03-31T19:09:25;5.03;;;1.27;;
10088;SDS011;51898;49.864;8.550;2023-03-31T19:12:27;5.27;;;1.30;;
10088;SDS011;51898;49.864;8.550;2023-03-31T19:15:29;4.77;;;1.30;;
10088;SDS011;51898;49.864;8.550;2023-03-31T19:18:31;4.13;;;2.57;;
10088;SDS011;51898;49.864;8.550;2023-03-31T19:21:33;6.77;;;1.80;;
10088;SDS011;51898;49.864;8.550;2023-03-31T19:24:37;3.57;;;1.40;;
10088;SDS011;51898;49.864;8.550;2023-03-31T19:27:40;5.03;;;1.80;;
10088;SDS011;51898;49.864;8.550;2023-03-31T19:30:41;4.30;;;1.30;;
10088;SDS011;51898;49.864;8.550;2023-03-31T19:33:43;2.97;;;1.27;;
10088;SDS011;51898;49.864;8.550;2023-03-31T19:36:44;6.97;;;1.50;;
10088;SDS011;51898;49.864;8.550;2023-03-31T19:39:46;4.10;;;1.40;;
10088;SDS011;51898;49.864;8.550;2023-03-31T19:42:48;1.70;;;1.20;;
10088;SDS011;51898;49.864;8.550;2023-03-31T19:45:51;3.00;;;1.23;;
10088;SDS011;51898;49.864;8.550;2023-03-31T19:48:53;4.20;;;1.30;;
10088;SDS011;51898;49.864;8.550;2023-03-31T19:51:55;3.27;;;0.93;;
10088;SDS011;51898;49.864;8.550;2023-03-31T19:54:57;4.70;;;1.50;;
10088;SDS011;51898;49.864;8.550;2023-03-31T19:57:58;2.43;;;1.30;;
10088;SDS011;51898;49.864;8.550;2023-03-31T20:01:00;4.07;;;1.23;;
10088;SDS011;51898;49.864;8.550;2023-03-31T20:04:03;5.57;;;1.70;;
10088;SDS011;51898;49.864;8.550;2023-03-31T20:07:05;4.20;;;1.63;;
10088;SDS011;51898;49.864;8.550;2023-03-31T20:10:07;7.13;;;2.33;;
10088;SDS011;51898;49.864;8.550;2023-03-31T20:13:11;4.40;;;1.17;;
10088;SDS011;51898;49.864;8.550;2023-03-31T20:16:14;4.00;;;1.30;;
10088;SDS011;51898;49.864;8.550;2023-03-31T20:19:19;1.60;;;0.90;;
10088;SDS011;51898;49.864;8.550;2023-03-31T20:22:22;3.70;;;1.10;;
10088;SDS011;51898;49.864;8.550;2023-03-31T20:25:26;3.00;;;1.10;;
10088;SDS011;51898;49.864;8.550;2023-03-31T20:28:28;5.10;;;1.60;;